Time;durP1;ratioP1;P1;durP2;ratioP2;P2;SDS_P1;SDS_P2;PMS_P1;PMS_P2;Temp;Humidity;BMP_temperature;BMP_pressure;BME280_temperature;BME280_humidity;BME280_pressure;Samples;Min_cycle;Max_cycle;Signal;HPM_P1;HPM_P2
2021/08/17 00:00:30;;;;;;;1.77;0.65;;;;;;;19.30;55.30;100278.72;5035618;28;20052;-67
2021/08/17 00:02:55;;;;;;;1.48;0.88;;;;;;;19.24;54.47;100279.50;5037193;28;20493;-67
2021/08/17 00:05:21;;;;;;;2.60;0.75;;;;;;;19.25;54.83;100273.00;5035939;28;20453;-68
2021/08/17 00:08:23;;;;;;;1.67;0.50;;;;;;;19.24;55.00;100266.72;5045212;28;20116;-66
2021/08/17 00:10:48;;;;;;;1.52;0.60;;;;;;;19.26;55.75;100265.69;4973798;29;20038;-67
2021/08/17 00:13:14;;;;;;;2.22;0.60;;;;;;;19.20;54.57;100256.41;4955373;29;20657;-67
2021/08/17 00:15:39;;;;;;;2.17;0.82;;;;;;;19.23;55.79;100261.47;4954919;29;20035;-68
2021/08/17 00:18:04;;;;;;;1.88;0.60;;;;;;;19.21;54.61;100252.63;4957950;28;20503;-68
2021/08/17 00:20:30;;;;;;;1.17;0.55;;;;;;;19.22;55.01;100254.31;4955123;29;20031;-67
2021/08/17 00:22:55;;;;;;;3.72;0.80;;;;;;;19.21;55.74;100247.19;4954870;29;20033;-67
2021/08/17 00:25:21;;;;;;;1.33;0.68;;;;;;;19.18;55.36;100242.13;4954939;29;20035;-67
2021/08/17 00:27:46;;;;;;;1.58;0.73;;;;;;;19.20;55.21;100240.03;4954738;29;20078;-68
2021/08/17 00:30:12;;;;;;;1.70;0.60;;;;;;;19.20;54.82;100240.03;4954945;29;20110;-67
2021/08/17 00:32:38;;;;;;;0.75;0.50;;;;;;;19.17;55.57;100235.81;4956448;29;20476;-68
2021/08/17 00:35:04;;;;;;;1.58;0.60;;;;;;;19.18;55.69;100232.06;4954639;29;20035;-67
2021/08/17 00:37:30;;;;;;;2.30;0.70;;;;;;;19.17;55.45;100235.81;4954955;29;20042;-66
2021/08/17 00:39:55;;;;;;;0.95;0.52;;;;;;;19.20;55.88;100234.59;4954335;29;20027;-66
2021/08/17 00:42:21;;;;;;;2.30;0.93;;;;;;;19.18;54.79;100232.06;4954911;29;20523;-67
2021/08/17 00:44:46;;;;;;;1.90;0.75;;;;;;;19.20;55.42;100232.72;4988957;28;20524;-67
2021/08/17 00:47:13;;;;;;;1.33;0.57;;;;;;;19.19;55.37;100232.91;5034888;28;20043;-67
2021/08/17 00:49:39;;;;;;;2.45;0.90;;;;;;;19.19;55.35;100222.00;5034923;28;20025;-67
2021/08/17 00:52:05;;;;;;;1.55;0.60;;;;;;;19.22;55.97;100229.78;5034712;28;20037;-67
2021/08/17 00:54:30;;;;;;;1.15;0.60;;;;;;;19.23;55.68;100223.31;5034212;28;20377;-67
2021/08/17 00:56:56;;;;;;;2.47;0.77;;;;;;;19.22;55.70;100216.16;5032204;28;20529;-66
2021/08/17 00:59:22;;;;;;;2.67;0.88;;;;;;;19.21;55.49;100220.78;5034483;28;20417;-67
2021/08/17 01:02:38;;;;;;;1.60;0.60;;;;;;;19.22;54.83;100217.00;5051121;28;20037;-65
2021/08/17 01:05:16;;;;;;;1.00;0.40;;;;;;;19.22;55.57;100217.00;5034816;28;20037;-66
2021/08/17 01:07:41;;;;;;;0.70;0.43;;;;;;;19.23;55.87;100217.84;5034188;28;20037;-67
2021/08/17 01:10:09;;;;;;;0.70;0.57;;;;;;;19.20;55.52;100213.63;5034463;28;20026;-67
2021/08/17 01:12:35;;;;;;;4.00;0.90;;;;;;;19.23;56.00;100215.13;5034460;28;20032;-67
2021/08/17 01:15:03;;;;;;;2.70;0.90;;;;;;;19.22;54.74;100217.00;5034404;28;20076;-67
2021/08/17 01:17:30;;;;;;;1.25;0.50;;;;;;;19.21;55.14;100219.94;5034918;28;20036;-64
2021/08/17 01:19:55;;;;;;;1.90;0.75;;;;;;;19.20;55.95;100215.53;5034769;28;20029;-67
2021/08/17 01:22:21;;;;;;;1.30;0.68;;;;;;;19.18;55.43;100209.41;5034268;28;20033;-67
2021/08/17 01:24:46;;;;;;;0.85;0.60;;;;;;;19.18;55.52;100210.25;5033892;28;20021;-67
2021/08/17 01:27:12;;;;;;;1.73;0.43;;;;;;;19.20;55.08;100197.28;5034238;28;20021;-66
2021/08/17 01:29:39;;;;;;;1.77;0.45;;;;;;;19.22;55.20;100191.66;5037144;28;20029;-63
2021/08/17 01:32:53;;;;;;;1.05;0.65;;;;;;;19.21;55.43;100189.97;5055029;28;20033;-62
2021/08/17 01:35:19;;;;;;;0.82;0.47;;;;;;;19.22;55.36;100208.00;5038128;28;20025;-67
2021/08/17 01:37:44;;;;;;;1.33;0.55;;;;;;;19.14;55.60;100205.38;5033945;28;20458;-66
2021/08/17 01:40:11;;;;;;;1.92;0.60;;;;;;;19.18;55.28;100206.69;5033901;28;20021;-66
2021/08/17 01:42:40;;;;;;;2.05;0.88;;;;;;;19.18;55.09;100198.53;5033699;28;20367;-67
2021/08/17 01:45:06;;;;;;;1.55;0.80;;;;;;;19.19;55.82;100208.38;5035524;28;20029;-67
2021/08/17 01:47:31;;;;;;;1.00;0.68;;;;;;;19.14;55.37;100203.50;5033925;28;20520;-67
2021/08/17 01:50:01;;;;;;;0.93;0.50;;;;;;;19.15;54.67;100205.22;5033263;28;20021;-68
2021/08/17 01:52:27;;;;;;;0.88;0.50;;;;;;;19.15;55.42;100207.09;5033653;28;20036;-66
2021/08/17 01:54:53;;;;;;;2.45;0.60;;;;;;;19.21;54.79;100198.13;5032293;28;20075;-66
2021/08/17 01:57:18;;;;;;;2.00;0.55;;;;;;;19.17;55.33;100196.84;5033526;28;20081;-66
2021/08/17 01:59:43;;;;;;;1.15;0.60;;;;;;;19.17;55.58;100197.69;5035734;28;20390;-65
2021/08/17 02:02:44;;;;;;;2.15;0.60;;;;;;;19.14;55.04;100198.03;5050826;28;20026;-62
2021/08/17 02:05:11;;;;;;;1.02;0.57;;;;;;;19.13;54.68;100204.53;5050529;28;20480;-67
2021/08/17 02:07:36;;;;;;;3.08;1.23;;;;;;;19.17;54.72;100202.28;5033237;28;20520;-67
2021/08/17 02:10:04;;;;;;;1.95;0.80;;;;;;;19.16;55.15;100189.69;5030077;28;20076;-67
2021/08/17 02:12:29;;;;;;;0.47;0.30;;;;;;;19.13;55.09;100184.59;5033232;28;20047;-67
2021/08/17 02:14:55;;;;;;;1.08;0.40;;;;;;;19.15;54.81;100188.84;5035359;28;20026;-67
2021/08/17 02:17:20;;;;;;;1.48;0.50;;;;;;;19.14;55.20;100192.59;5033494;28;20032;-67
2021/08/17 02:19:46;;;;;;;2.03;0.40;;;;;;;19.12;54.79;100193.81;5033383;28;20072;-67
2021/08/17 02:22:11;;;;;;;1.17;0.73;;;;;;;19.10;55.80;100185.84;5033039;28;20074;-67
2021/08/17 02:24:37;;;;;;;1.80;0.40;;;;;;;19.14;55.33;100191.75;5033167;28;20087;-67
2021/08/17 02:27:03;;;;;;;0.80;0.40;;;;;;;19.13;55.28;100190.06;5031254;28;20022;-66
2021/08/17 02:29:30;;;;;;;2.75;0.95;;;;;;;19.14;54.60;100189.03;5033557;28;20532;-66
2021/08/17 02:31:56;;;;;;;1.42;0.52;;;;;;;19.14;55.80;100189.03;5033098;28;20399;-66
2021/08/17 02:34:21;;;;;;;1.70;0.45;;;;;;;19.12;54.83;100191.94;5033133;28;20027;-65
2021/08/17 02:36:46;;;;;;;1.75;0.40;;;;;;;19.13;55.11;100190.06;5049191;28;20484;-67
2021/08/17 02:39:12;;;;;;;0.75;0.40;;;;;;;19.10;55.03;100188.56;5033154;28;20018;-67
2021/08/17 02:41:37;;;;;;;0.40;0.30;;;;;;;19.09;54.94;100194.22;5033021;28;20463;-67
2021/08/17 02:44:03;;;;;;;1.02;0.40;;;;;;;19.10;55.58;100190.44;5032933;28;20037;-66
2021/08/17 02:46:28;;;;;;;1.88;0.73;;;;;;;19.08;54.92;100187.06;5035255;28;20052;-67
2021/08/17 02:48:53;;;;;;;2.17;0.50;;;;;;;19.09;55.21;100184.16;5032846;28;20028;-66
2021/08/17 02:51:19;;;;;;;3.10;0.80;;;;;;;19.10;55.11;100174.09;5033006;28;20030;-67
2021/08/17 02:53:44;;;;;;;1.17;0.40;;;;;;;19.14;55.77;100180.84;5032666;28;20599;-67
2021/08/17 02:56:09;;;;;;;1.52;0.60;;;;;;;19.11;54.61;100183.97;5032875;28;20527;-66
2021/08/17 02:58:34;;;;;;;1.25;0.40;;;;;;;19.13;55.56;100184.59;5032760;28;20053;-67
2021/08/17 03:01:00;;;;;;;2.10;0.70;;;;;;;19.13;55.75;100176.44;5035649;28;20112;-67
2021/08/17 03:03:25;;;;;;;1.35;0.68;;;;;;;19.14;55.55;100181.69;5032786;28;20053;-67
2021/08/17 03:05:50;;;;;;;1.63;0.50;;;;;;;19.10;55.27;100171.38;5032529;28;20117;-67
2021/08/17 03:08:29;;;;;;;0.75;0.40;;;;;;;19.12;55.66;100182.94;5041618;28;20021;-61
2021/08/17 03:10:55;;;;;;;1.33;0.50;;;;;;;19.14;55.05;100178.13;5036316;28;20041;-65
2021/08/17 03:13:20;;;;;;;0.82;0.52;;;;;;;19.09;55.71;100148.75;5032755;28;20021;-66
2021/08/17 03:15:46;;;;;;;2.05;0.38;;;;;;;19.13;54.43;100147.31;5036411;28;20036;-67
2021/08/17 03:18:11;;;;;;;0.98;0.40;;;;;;;19.11;54.90;100148.53;5032494;28;20574;-66
2021/08/17 03:20:38;;;;;;;0.88;0.38;;;;;;;19.06;55.99;100140.13;5032881;28;20021;-67
2021/08/17 03:23:05;;;;;;;0.45;0.30;;;;;;;19.07;55.03;100133.63;5032339;28;20343;-67
2021/08/17 03:25:30;;;;;;;0.68;0.55;;;;;;;19.08;54.80;100133.44;5032770;28;20022;-67
2021/08/17 03:27:56;;;;;;;1.05;0.50;;;;;;;19.08;54.74;100130.72;5034813;28;20032;-67
2021/08/17 03:30:25;;;;;;;1.05;0.30;;;;;;;19.08;53.83;100132.59;5037876;28;20035;-63
2021/08/17 03:32:50;;;;;;;0.57;0.40;;;;;;;19.04;54.60;100123.13;5038201;28;20033;-67
2021/08/17 03:35:16;;;;;;;0.85;0.30;;;;;;;19.05;54.87;100127.53;5036234;28;20087;-67
2021/08/17 03:37:42;;;;;;;2.63;0.70;;;;;;;19.04;53.98;100125.84;5035999;28;20044;-67
2021/08/17 03:40:14;;;;;;;1.90;0.40;;;;;;;19.04;54.42;100131.28;5039041;28;20413;-62
2021/08/17 03:46:02;;;;;;;0.68;0.30;;;;;;;19.02;53.99;100125.19;5043049;28;20044;-66
2021/08/17 03:48:27;;;;;;;2.08;0.40;;;;;;;19.05;54.17;100127.53;5036078;28;20021;-66
2021/08/17 03:50:52;;;;;;;3.05;0.40;;;;;;;19.06;53.89;100123.78;5035546;28;20104;-67
2021/08/17 03:53:18;;;;;;;0.47;0.30;;;;;;;19.05;53.25;100127.53;5035863;28;20465;-67
2021/08/17 03:55:43;;;;;;;0.82;0.40;;;;;;;19.04;53.06;100123.13;5034488;28;20021;-67
2021/08/17 03:58:08;;;;;;;1.00;0.30;;;;;;;19.03;53.50;100124.16;5035796;28;20088;-65
2021/08/17 04:00:35;;;;;;;1.27;0.40;;;;;;;18.99;53.99;100122.88;5038244;28;20021;-66
2021/08/17 04:03:00;;;;;;;0.47;0.20;;;;;;;19.84;52.14;100128.31;5035704;28;20025;-65
2021/08/17 04:05:26;;;;;;;0.73;0.20;;;;;;;20.23;50.61;100137.81;5042292;28;20432;-65
2021/08/17 04:08:12;;;;;;;1.15;0.57;;;;;;;20.51;49.68;100121.41;5055622;28;20029;-62
2021/08/17 04:10:39;;;;;;;0.90;0.50;;;;;;;20.62;49.71;100115.34;5043049;28;20112;-66
2021/08/17 04:13:04;;;;;;;0.60;0.40;;;;;;;20.71;48.77;100109.53;5035841;28;20032;-64
2021/08/17 04:15:30;;;;;;;0.30;0.30;;;;;;;20.89;48.90;100099.91;5036247;28;20030;-67
2021/08/17 04:17:55;;;;;;;0.17;0.10;;;;;;;21.00;48.76;100102.06;5035183;28;20087;-66
2021/08/17 04:20:20;;;;;;;0.90;0.30;;;;;;;21.01;48.45;100098.28;5035525;28;20496;-67
2021/08/17 04:22:46;;;;;;;0.45;0.10;;;;;;;21.02;49.17;100105.41;5035366;28;20028;-66
2021/08/17 04:25:11;;;;;;;0.77;0.28;;;;;;;21.11;49.50;100098.69;5035241;28;20029;-65
2021/08/17 04:27:37;;;;;;;1.02;0.20;;;;;;;21.14;49.36;100102.91;5035488;28;20030;-64
2021/08/17 04:30:05;;;;;;;0.52;0.22;;;;;;;21.24;49.41;100104.22;5035870;28;20032;-67
2021/08/17 04:32:30;;;;;;;0.10;0.10;;;;;;;21.20;49.34;100107.56;5034005;28;20024;-66
2021/08/17 04:34:55;;;;;;;0.45;0.10;;;;;;;21.26;49.32;100113.06;5034813;28;20025;-67
2021/08/17 04:37:21;;;;;;;0.73;0.17;;;;;;;21.26;49.94;100107.59;5035213;28;20482;-66
2021/08/17 04:39:46;;;;;;;1.00;0.17;;;;;;;21.32;49.97;100100.44;5046083;28;20021;-64
2021/08/17 04:42:11;;;;;;;0.85;0.20;;;;;;;21.32;49.59;100101.28;5038134;28;20025;-67
2021/08/17 04:44:37;;;;;;;0.93;0.10;;;;;;;21.31;49.71;100088.66;5034801;28;20028;-67
2021/08/17 04:47:03;;;;;;;1.27;0.40;;;;;;;21.32;50.24;100094.97;5034366;28;20054;-66
2021/08/17 04:49:28;;;;;;;1.00;0.40;;;;;;;21.38;49.35;100087.84;5034860;28;20028;-66
2021/08/17 04:51:54;;;;;;;2.05;0.47;;;;;;;21.45;50.22;100095.00;5034701;28;20029;-66
2021/08/17 04:54:19;;;;;;;0.80;0.28;;;;;;;21.41;49.68;100092.88;5035004;28;20032;-62
2021/08/17 04:56:44;;;;;;;0.93;0.10;;;;;;;21.47;50.13;100092.88;5036734;28;20041;-66
2021/08/17 04:59:10;;;;;;;1.15;0.28;;;;;;;21.47;49.45;100086.56;5034676;28;20026;-66
2021/08/17 05:01:35;;;;;;;1.05;0.20;;;;;;;21.48;50.03;100077.31;5034728;28;20044;-66
2021/08/17 05:04:03;;;;;;;1.00;0.30;;;;;;;21.48;50.09;100082.78;5034164;28;20033;-67
2021/08/17 05:06:28;;;;;;;0.73;0.10;;;;;;;21.56;50.93;100071.66;5034736;28;20079;-67
2021/08/17 05:08:53;;;;;;;0.57;0.20;;;;;;;21.52;50.35;100073.13;5036892;28;20021;-66
2021/08/17 05:11:18;;;;;;;2.35;0.20;;;;;;;21.46;50.11;100079.41;5034160;28;20034;-67
2021/08/17 05:13:53;;;;;;;0.60;0.20;;;;;;;21.61;50.03;100088.25;5052353;28;20084;-65
2021/08/17 05:16:18;;;;;;;0.85;0.30;;;;;;;21.61;50.20;100082.78;5053046;28;20021;-65
2021/08/17 05:18:45;;;;;;;0.73;0.20;;;;;;;21.59;50.73;100090.38;5034166;28;20043;-65
2021/08/17 05:21:10;;;;;;;0.75;0.20;;;;;;;21.53;50.29;100085.75;5033881;28;20029;-67
2021/08/17 05:23:35;;;;;;;1.73;0.60;;;;;;;21.62;50.36;100081.72;5035807;28;20060;-65
2021/08/17 05:26:01;;;;;;;1.00;0.30;;;;;;;21.64;51.45;100085.09;5033897;28;20025;-66
2021/08/17 05:28:26;;;;;;;1.98;0.50;;;;;;;21.62;50.52;100068.06;5034192;28;20022;-65
2021/08/17 05:30:51;;;;;;;2.03;0.40;;;;;;;21.44;49.75;100067.84;5033653;28;20486;-65
2021/08/17 05:33:17;;;;;;;0.68;0.20;;;;;;;21.31;49.90;100069.53;5034183;28;20033;-66
2021/08/17 05:35:43;;;;;;;0.60;0.28;;;;;;;21.21;49.41;100066.34;5033996;28;20119;-66
2021/08/17 05:38:09;;;;;;;1.08;0.57;;;;;;;21.20;48.16;100063.81;5033877;28;20033;-66
2021/08/17 05:40:34;;;;;;;0.57;0.20;;;;;;;21.16;49.15;100063.38;5016317;28;20048;-66
2021/08/17 05:43:02;;;;;;;0.80;0.32;;;;;;;21.14;49.19;100070.94;5033647;28;20068;-66
2021/08/17 05:46:03;;;;;;;1.83;0.32;;;;;;;21.15;48.75;100064.44;5047459;28;20048;-61
2021/08/17 05:48:29;;;;;;;0.20;0.20;;;;;;;21.09;49.12;100062.53;5037780;28;20017;-65
2021/08/17 05:51:05;;;;;;;1.70;0.50;;;;;;;21.01;48.77;100054.56;5033472;28;20026;-63
2021/08/17 05:53:31;;;;;;;2.13;0.30;;;;;;;21.11;48.95;100052.25;5033347;28;20477;-65
2021/08/17 05:55:56;;;;;;;1.20;0.28;;;;;;;21.11;48.43;100054.13;5033488;28;20129;-65
2021/08/17 05:58:21;;;;;;;1.83;0.43;;;;;;;21.07;47.29;100053.72;5033334;28;20069;-65
2021/08/17 06:00:47;;;;;;;0.75;0.25;;;;;;;21.05;47.61;100042.16;5033389;28;20466;-65
2021/08/17 06:03:12;;;;;;;1.88;0.63;;;;;;;21.03;47.62;100030.59;5033622;28;20101;-65
2021/08/17 06:05:37;;;;;;;0.60;0.25;;;;;;;21.06;46.96;100040.25;5033500;28;20496;-65
2021/08/17 06:08:03;;;;;;;1.80;0.43;;;;;;;21.03;49.25;100036.06;5034687;28;20039;-65
2021/08/17 06:10:28;;;;;;;1.17;0.40;;;;;;;21.11;47.59;100046.78;5032743;28;20025;-64
2021/08/17 06:12:54;;;;;;;0.25;0.20;;;;;;;20.99;47.90;100045.69;5041163;28;20032;-64
2021/08/17 06:15:19;;;;;;;0.98;0.30;;;;;;;21.02;48.24;100061.69;5032187;28;20033;-64
2021/08/17 06:17:45;;;;;;;0.80;0.20;;;;;;;20.98;47.27;100044.00;5032007;28;20036;-64
2021/08/17 06:20:11;;;;;;;0.93;0.30;;;;;;;21.10;47.16;100020.50;5031423;28;20027;-64
2021/08/17 06:22:36;;;;;;;0.50;0.10;;;;;;;21.07;47.65;100023.66;5041129;28;20016;-65
2021/08/17 06:25:02;;;;;;;1.35;0.30;;;;;;;21.06;47.85;100027.44;5029365;28;20032;-64
2021/08/17 06:27:28;;;;;;;0.63;0.20;;;;;;;21.13;47.65;100030.16;5023584;28;20021;-65
2021/08/17 06:29:53;;;;;;;0.75;0.32;;;;;;;21.11;47.53;100027.63;5026553;28;20449;-64
2021/08/17 06:32:19;;;;;;;0.60;0.17;;;;;;;21.18;47.49;100033.97;5032430;28;20036;-67
2021/08/17 06:34:45;;;;;;;2.50;0.43;;;;;;;21.15;47.48;100034.38;5010612;28;20068;-67
2021/08/17 06:37:12;;;;;;;1.05;0.30;;;;;;;21.15;48.16;100028.91;5033961;28;20037;-66
2021/08/17 06:39:38;;;;;;;0.85;0.40;;;;;;;21.16;48.23;100011.44;5040639;28;20060;-65
2021/08/17 06:42:04;;;;;;;2.33;0.57;;;;;;;21.15;47.61;100033.53;5038604;28;20049;-66
2021/08/17 06:44:29;;;;;;;1.13;0.20;;;;;;;21.18;47.39;100014.84;5027789;28;20071;-67
2021/08/17 06:46:55;;;;;;;1.77;0.38;;;;;;;21.17;47.89;100025.97;5023543;28;20111;-65
2021/08/17 06:49:20;;;;;;;0.73;0.30;;;;;;;21.21;47.17;100017.16;5017071;28;20458;-67
2021/08/17 06:51:47;;;;;;;0.77;0.10;;;;;;;21.20;47.29;100034.59;5029632;28;20485;-67
2021/08/17 06:54:13;;;;;;;1.13;0.25;;;;;;;21.18;47.39;100027.66;5032938;28;20029;-65
2021/08/17 06:56:38;;;;;;;0.70;0.30;;;;;;;21.21;47.73;100038.19;5037237;28;20040;-66
2021/08/17 06:59:03;;;;;;;2.22;0.40;;;;;;;21.18;47.96;100033.97;5032208;28;20057;-65
2021/08/17 07:01:29;;;;;;;2.03;0.40;;;;;;;21.12;47.76;100043.00;5032559;28;20478;-65
2021/08/17 07:03:54;;;;;;;0.85;0.20;;;;;;;21.16;47.23;100044.25;5037227;28;20032;-66
2021/08/17 07:06:20;;;;;;;1.95;0.20;;;;;;;21.16;47.27;100044.25;5046435;28;20068;-65
2021/08/17 07:08:45;;;;;;;1.35;0.43;;;;;;;21.15;47.67;100039.84;5037065;28;20072;-64
2021/08/17 07:11:10;;;;;;;0.68;0.20;;;;;;;21.14;47.28;100043.63;5034280;28;20026;-65
2021/08/17 07:13:36;;;;;;;0.32;0.10;;;;;;;21.19;47.52;100048.47;5039402;28;20474;-64
2021/08/17 07:16:01;;;;;;;1.70;0.60;;;;;;;21.09;47.64;100043.41;5031705;28;20459;-65
2021/08/17 07:18:27;;;;;;;0.88;0.30;;;;;;;21.14;47.90;100049.09;5039498;28;20021;-67
2021/08/17 07:20:52;;;;;;;1.05;0.20;;;;;;;21.25;48.15;100036.72;5029927;28;20017;-66
2021/08/17 07:23:28;;;;;;;0.95;0.22;;;;;;;21.13;46.91;100036.47;5037219;28;20433;-63
2021/08/17 07:25:53;;;;;;;1.23;0.30;;;;;;;21.24;47.67;100044.09;5033337;28;20033;-67
2021/08/17 07:28:19;;;;;;;0.60;0.20;;;;;;;21.14;47.98;100056.44;5017551;28;20022;-66
2021/08/17 07:30:45;;;;;;;2.30;0.20;;;;;;;21.18;47.09;100058.56;5035480;28;20071;-66
2021/08/17 07:33:10;;;;;;;2.92;0.40;;;;;;;21.20;46.80;100053.72;5037228;28;20029;-66
2021/08/17 07:35:36;;;;;;;0.22;0.00;;;;;;;21.24;47.70;100057.75;5034009;28;20025;-66
2021/08/17 07:38:02;;;;;;;1.17;0.28;;;;;;;21.21;47.66;100047.22;5042801;28;20040;-66
2021/08/17 07:40:27;;;;;;;0.40;0.17;;;;;;;21.24;46.67;100037.75;5037231;28;20493;-66
2021/08/17 07:42:53;;;;;;;0.30;0.30;;;;;;;21.19;46.47;100049.31;5035536;28;20088;-65
2021/08/17 07:45:48;;;;;;;0.95;0.10;;;;;;;21.13;46.89;100052.03;5042479;28;20025;-61
2021/08/17 07:48:13;;;;;;;;;;;;;;;21.21;47.20;100049.94;5036151;28;20470;-65
2021/08/17 07:50:39;;;;;;;0.40;0.13;;;;;;;21.28;47.18;100060.91;5038242;28;19917;-66
2021/08/17 07:53:08;;;;;;;1.20;0.30;;;;;;;21.18;46.24;100055.84;5035463;28;20389;-66
2021/08/17 07:55:35;;;;;;;2.35;0.28;;;;;;;21.24;47.04;100060.50;5034864;28;20056;-66
2021/08/17 07:58:00;;;;;;;0.40;0.20;;;;;;;21.27;47.25;100068.25;5034906;28;20409;-67
2021/08/17 08:00:26;;;;;;;0.95;0.20;;;;;;;21.27;47.64;100065.53;5036550;28;20021;-66
2021/08/17 08:02:51;;;;;;;1.40;0.30;;;;;;;21.26;46.67;100063.00;5034589;28;20032;-65
2021/08/17 08:05:16;;;;;;;0.98;0.30;;;;;;;21.27;47.43;100057.34;5032093;28;20045;-65
2021/08/17 08:08:02;;;;;;;1.55;0.30;;;;;;;21.25;46.71;100062.16;5035040;28;20056;-66
2021/08/17 08:10:28;;;;;;;1.90;0.40;;;;;;;21.24;47.50;100060.50;5033511;28;20080;-66
2021/08/17 08:12:53;;;;;;;1.17;0.40;;;;;;;21.15;48.10;100056.22;5030991;28;20466;-66
2021/08/17 08:15:19;;;;;;;1.85;0.22;;;;;;;21.24;46.42;100060.50;5037867;28;20044;-62
2021/08/17 08:21:08;;;;;;;1.95;0.28;;;;;;;21.26;47.82;100058.38;5047859;28;20124;-66
2021/08/17 08:23:36;;;;;;;2.20;0.32;;;;;;;21.27;46.55;100059.22;5034905;28;20028;-67
2021/08/17 08:26:01;;;;;;;1.15;0.40;;;;;;;21.27;46.94;100054.59;5034309;28;20029;-66
2021/08/17 08:28:27;;;;;;;0.95;0.20;;;;;;;21.23;46.88;100063.41;5016395;28;20381;-63
2021/08/17 08:30:52;;;;;;;1.58;0.20;;;;;;;21.25;47.22;100062.16;5046371;28;20029;-67
2021/08/17 08:33:17;;;;;;;2.78;0.22;;;;;;;21.31;46.85;100061.31;5056946;28;20028;-63
2021/08/17 08:35:43;;;;;;;2.05;0.47;;;;;;;21.26;47.37;100058.38;5036800;28;20032;-67
2021/08/17 08:38:08;;;;;;;0.60;0.25;;;;;;;21.29;46.95;100066.16;5034331;28;20029;-66
2021/08/17 08:40:34;;;;;;;1.30;0.32;;;;;;;21.25;46.69;100062.16;5033263;28;20522;-71
2021/08/17 08:42:59;;;;;;;1.13;0.30;;;;;;;21.26;46.76;100080.25;5037329;28;20041;-68
2021/08/17 08:45:25;;;;;;;0.80;0.30;;;;;;;21.23;46.41;100064.25;5034261;28;20030;-69
2021/08/17 08:47:50;;;;;;;1.30;0.65;;;;;;;21.21;46.96;100060.88;5035511;28;20378;-66
2021/08/17 08:50:16;;;;;;;0.75;0.10;;;;;;;21.27;46.88;100070.16;5033258;28;20467;-65
2021/08/17 08:52:42;;;;;;;1.05;0.20;;;;;;;21.25;46.42;100069.53;5026452;28;20061;-64
2021/08/17 08:55:10;;;;;;;0.80;0.30;;;;;;;21.27;46.28;100067.44;5022511;28;20033;-64
2021/08/17 08:57:37;;;;;;;0.60;0.22;;;;;;;21.28;46.97;100064.47;5034512;28;20048;-66
2021/08/17 09:00:09;;;;;;;0.85;0.20;;;;;;;21.25;46.35;100062.16;5035801;28;20020;-61
2021/08/17 09:02:34;;;;;;;1.23;0.22;;;;;;;21.30;46.90;100065.09;5039757;28;20025;-60
2021/08/17 09:05:00;;;;;;;1.02;0.45;;;;;;;21.28;46.29;100058.19;5046881;28;20071;-65
2021/08/17 09:07:42;;;;;;;1.10;0.40;;;;;;;21.29;47.22;100068.06;5012815;28;20466;-64
2021/08/17 09:10:14;;;;;;;0.73;0.20;;;;;;;21.34;47.34;100073.75;5031911;28;20374;-61
2021/08/17 09:12:46;;;;;;;2.20;0.45;;;;;;;21.25;47.18;100066.78;5010857;28;20032;-61
2021/08/17 09:15:15;;;;;;;2.33;0.40;;;;;;;21.23;46.98;100069.72;5034843;28;20037;-61
2021/08/17 09:17:41;;;;;;;0.73;0.20;;;;;;;21.25;46.76;100078.56;5038591;28;20048;-63
2021/08/17 09:20:13;;;;;;;1.95;0.60;;;;;;;21.30;46.91;100072.47;5050496;28;20422;-63
2021/08/17 09:22:38;;;;;;;1.55;0.47;;;;;;;21.28;46.43;100072.69;5039711;28;20112;-65
2021/08/17 09:28:34;;;;;;;1.33;0.70;;;;;;;21.29;46.61;100074.38;5035150;28;20079;-62
2021/08/17 09:31:01;;;;;;;;;;;;;;;21.28;46.90;100078.16;5034068;28;20067;-61
2021/08/17 09:33:41;;;;;;;1.13;0.20;;;;;;;21.39;46.01;100076.69;5027638;28;19917;-61
2021/08/17 09:36:08;;;;;;;0.40;0.30;;;;;;;21.30;46.14;100076.03;5031355;28;20025;-61
2021/08/17 09:38:34;;;;;;;0.73;0.28;;;;;;;21.32;47.21;100067.63;5015562;28;20032;-61
2021/08/17 09:41:16;;;;;;;0.98;0.20;;;;;;;21.34;46.61;100076.50;5033330;28;20025;-61
2021/08/17 09:43:57;;;;;;;0.65;0.10;;;;;;;21.31;47.55;100066.78;5035407;28;20029;-61
2021/08/17 09:46:27;;;;;;;0.88;0.20;;;;;;;21.29;47.02;100057.97;5020153;28;20070;-63
2021/08/17 09:48:54;;;;;;;1.85;0.60;;;;;;;21.31;47.11;100065.94;5022382;28;20442;-61
2021/08/17 09:51:34;;;;;;;1.35;0.30;;;;;;;21.38;46.77;100065.97;5031806;28;20108;-61
2021/08/17 09:54:13;;;;;;;1.20;0.32;;;;;;;21.26;46.69;100066.59;5030996;28;20120;-61
2021/08/17 09:56:38;;;;;;;0.30;0.10;;;;;;;21.36;46.28;100068.09;5031062;28;20042;-61
2021/08/17 09:59:05;;;;;;;0.95;0.40;;;;;;;21.28;45.94;100077.31;5031668;28;20032;-61
2021/08/17 10:01:31;;;;;;;0.77;0.22;;;;;;;21.24;47.11;100070.56;5018537;28;20024;-62
2021/08/17 10:03:59;;;;;;;3.80;0.68;;;;;;;21.28;46.74;100064.47;5032306;28;20108;-61
2021/08/17 10:06:26;;;;;;;1.30;0.30;;;;;;;21.33;45.88;100052.91;5035864;28;20040;-61
2021/08/17 10:08:54;;;;;;;0.85;0.25;;;;;;;21.29;46.91;100055.22;5031938;28;20443;-60
2021/08/17 10:11:20;;;;;;;2.10;0.52;;;;;;;21.32;46.45;100051.22;5032223;28;20086;-61
2021/08/17 10:13:46;;;;;;;1.95;0.30;;;;;;;21.36;45.73;100041.56;5031745;28;20029;-61
2021/08/17 10:16:16;;;;;;;1.10;0.38;;;;;;;21.35;47.31;100044.53;5032209;28;20024;-61
2021/08/17 10:18:43;;;;;;;1.65;0.20;;;;;;;21.32;46.66;100038.41;5032191;28;20068;-61
2021/08/17 10:21:10;;;;;;;2.38;0.20;;;;;;;21.27;46.52;100038.19;5032405;28;20053;-61
2021/08/17 10:23:41;;;;;;;0.93;0.28;;;;;;;21.40;46.70;100036.53;5033386;28;20093;-61
2021/08/17 10:26:06;;;;;;;1.40;0.52;;;;;;;21.31;47.38;100034.00;5032915;28;20032;-61
2021/08/17 10:28:40;;;;;;;1.80;0.25;;;;;;;21.31;46.23;100034.00;5040118;28;20021;-61
2021/08/17 10:31:11;;;;;;;1.60;0.60;;;;;;;21.35;46.86;100022.66;5048588;28;20112;-61
2021/08/17 10:33:41;;;;;;;1.90;0.50;;;;;;;21.40;46.39;100025.59;5052463;28;20028;-62
2021/08/17 10:36:09;;;;;;;0.95;0.35;;;;;;;21.35;45.76;100022.66;5021828;28;20112;-61
2021/08/17 10:38:37;;;;;;;1.02;0.20;;;;;;;21.40;45.73;100020.13;5033134;28;20044;-61
2021/08/17 10:41:06;;;;;;;2.67;0.30;;;;;;;21.37;45.99;100015.06;5034449;28;20028;-61
2021/08/17 10:43:31;;;;;;;1.27;0.30;;;;;;;21.31;47.07;100012.13;5035497;28;20074;-60
2021/08/17 10:46:05;;;;;;;0.85;0.20;;;;;;;21.38;46.29;100022.22;5040595;28;20108;-61
2021/08/17 10:48:45;;;;;;;1.40;0.30;;;;;;;21.32;46.71;100019.25;5039056;28;20029;-61
2021/08/17 10:51:37;;;;;;;1.67;0.47;;;;;;;21.36;45.75;100019.72;5052921;28;20025;-59
2021/08/17 10:54:04;;;;;;;2.45;0.50;;;;;;;21.37;46.63;100009.63;4969766;28;20150;-61
2021/08/17 10:56:32;;;;;;;0.47;0.20;;;;;;;21.35;46.50;100017.19;4969262;28;20098;-60
2021/08/17 10:58:58;;;;;;;1.95;0.20;;;;;;;21.36;46.88;100018.88;4950962;29;20039;-60
2021/08/17 11:01:35;;;;;;;1.42;0.28;;;;;;;21.35;47.02;100017.19;4948565;29;20030;-61
2021/08/17 11:04:01;;;;;;;0.95;0.20;;;;;;;21.28;46.51;100017.16;4952496;29;20039;-61
2021/08/17 11:06:44;;;;;;;1.33;0.30;;;;;;;21.40;46.00;100014.66;4945889;29;20039;-61
2021/08/17 11:09:35;;;;;;;1.52;0.40;;;;;;;21.44;46.19;100021.38;4937903;29;20074;-61
2021/08/17 11:12:09;;;;;;;0.25;0.08;;;;;;;21.40;46.32;100020.13;4925171;29;20043;-61
2021/08/17 11:14:39;;;;;;;2.55;0.47;;;;;;;21.39;46.70;100027.47;4920421;29;20501;-61
2021/08/17 11:17:13;;;;;;;1.08;0.10;;;;;;;21.45;45.88;100028.53;4933316;29;20146;-61
2021/08/17 11:19:41;;;;;;;2.63;0.47;;;;;;;21.45;46.33;100023.06;4927887;29;20050;-61
2021/08/17 11:22:17;;;;;;;0.38;0.20;;;;;;;21.41;46.73;100019.06;4924069;29;20419;-60
2021/08/17 11:24:46;;;;;;;1.52;0.10;;;;;;;21.44;46.98;100018.63;4941647;29;20567;-61
2021/08/17 11:27:16;;;;;;;0.65;0.20;;;;;;;21.36;46.94;100018.88;4933762;29;20038;-61
2021/08/17 11:29:51;;;;;;;1.17;0.40;;;;;;;21.34;45.62;100018.25;4932792;29;20028;-61
2021/08/17 11:32:31;;;;;;;1.20;0.20;;;;;;;21.38;46.71;100014.88;4984673;28;20383;-61
2021/08/17 11:35:06;;;;;;;0.60;0.20;;;;;;;21.42;46.89;100018.00;4990373;28;20027;-61
2021/08/17 11:37:33;;;;;;;1.60;0.40;;;;;;;21.45;46.66;100018.44;4989346;28;20026;-61
2021/08/17 11:40:01;;;;;;;1.05;0.30;;;;;;;21.39;46.18;100018.44;4986783;28;20026;-60